createdAt,value
2018-05-29T00:02:21.503Z,21.40
2018-05-29T00:04:49.229Z,21.40
2018-05-29T00:07:17.677Z,21.40
2018-05-29T00:09:45.319Z,21.40
2018-05-29T00:12:13.798Z,21.40
2018-05-29T00:14:41.490Z,21.40
2018-05-29T00:17:09.203Z,21.40
2018-05-29T00:19:36.879Z,21.40
2018-05-29T00:22:04.696Z,21.40
2018-05-29T00:24:32.409Z,21.40
2018-05-29T00:27:00.181Z,21.40
2018-05-29T00:29:27.858Z,21.40
2018-05-29T00:31:55.583Z,21.40
2018-05-29T00:34:23.315Z,21.40
2018-05-29T00:36:51.050Z,21.40
2018-05-29T00:39:18.734Z,21.40
2018-05-29T00:41:46.481Z,21.40
2018-05-29T00:44:14.247Z,21.40
2018-05-29T00:46:41.986Z,21.40
2018-05-29T00:49:09.610Z,21.40
2018-05-29T00:51:37.870Z,21.40
2018-05-29T00:54:05.589Z,21.40
2018-05-29T00:56:33.279Z,21.30
2018-05-29T00:59:01.054Z,21.30
2018-05-29T01:01:29.447Z,21.30
2018-05-29T01:03:57.155Z,21.30
2018-05-29T01:06:25.586Z,21.20
2018-05-29T01:08:53.246Z,21.20
2018-05-29T01:11:20.911Z,21.20
2018-05-29T01:13:48.609Z,21.20
2018-05-29T01:16:16.391Z,21.10
2018-05-29T01:18:44.875Z,21.10
2018-05-29T01:21:12.527Z,21.10
2018-05-29T01:23:40.195Z,21.10
2018-05-29T01:26:07.895Z,21.10
2018-05-29T01:28:35.580Z,21.00
2018-05-29T01:31:03.235Z,21.00
2018-05-29T01:33:30.917Z,21.00
2018-05-29T01:35:58.592Z,21.00
2018-05-29T01:38:27.208Z,21.00
2018-05-29T01:40:54.863Z,20.90
2018-05-29T01:43:25.351Z,20.90
2018-05-29T01:45:53.018Z,20.90
2018-05-29T01:48:20.709Z,20.90
2018-05-29T01:50:48.350Z,20.90
2018-05-29T01:53:16.041Z,20.90
2018-05-29T01:55:43.679Z,20.80
2018-05-29T01:58:11.364Z,20.80
2018-05-29T02:00:39.128Z,20.80
2018-05-29T02:03:06.798Z,20.80
2018-05-29T02:05:34.566Z,20.80
2018-05-29T02:08:02.253Z,20.80
2018-05-29T02:10:29.955Z,20.70
2018-05-29T02:12:57.647Z,20.70
2018-05-29T02:15:25.280Z,20.70
2018-05-29T02:17:52.938Z,20.70
2018-05-29T02:20:20.607Z,20.70
2018-05-29T02:22:48.265Z,20.70
2018-05-29T02:25:16.026Z,20.70
2018-05-29T02:27:43.650Z,20.70
2018-05-29T02:30:11.384Z,20.70
2018-05-29T02:32:39.118Z,20.70
2018-05-29T02:35:06.862Z,20.70
2018-05-29T02:37:35.291Z,20.70
2018-05-29T02:40:03.881Z,20.70
2018-05-29T02:42:31.450Z,20.70
2018-05-29T02:44:59.185Z,20.60
2018-05-29T02:47:26.861Z,20.60
2018-05-29T02:49:55.398Z,20.60
2018-05-29T02:52:23.059Z,20.60
2018-05-29T02:54:50.815Z,20.60
2018-05-29T02:57:18.541Z,20.60
2018-05-29T02:59:46.197Z,20.60
2018-05-29T03:02:13.858Z,20.60
2018-05-29T03:04:41.570Z,20.60
2018-05-29T03:07:09.316Z,20.50
2018-05-29T03:09:36.974Z,20.50
2018-05-29T03:12:04.642Z,20.50
2018-05-29T03:14:32.313Z,20.50
2018-05-29T03:16:59.997Z,20.50
2018-05-29T03:19:27.718Z,20.50
2018-05-29T03:21:55.424Z,20.50
2018-05-29T03:24:23.094Z,20.50
2018-05-29T03:26:50.792Z,20.50
2018-05-29T03:29:18.555Z,20.50
2018-05-29T03:31:46.217Z,20.50
2018-05-29T03:34:14.356Z,20.50
2018-05-29T03:36:42.027Z,20.50
2018-05-29T03:39:09.713Z,20.50
2018-05-29T03:41:37.371Z,20.50
2018-05-29T03:44:05.053Z,20.60
2018-05-29T03:46:32.750Z,20.60
2018-05-29T03:49:00.550Z,20.60
2018-05-29T03:51:28.214Z,20.60
2018-05-29T03:53:55.925Z,20.60
2018-05-29T03:56:23.565Z,20.70
2018-05-29T03:58:51.275Z,20.70
2018-05-29T04:01:19.029Z,20.70
2018-05-29T04:03:46.730Z,20.70
2018-05-29T04:06:14.445Z,20.70
2018-05-29T04:08:42.219Z,20.70
2018-05-29T04:11:10.654Z,20.80
2018-05-29T04:13:38.394Z,20.80
2018-05-29T04:16:06.113Z,20.80
2018-05-29T04:18:33.766Z,20.80
2018-05-29T04:21:01.434Z,20.90
2018-05-29T04:23:29.133Z,20.90
2018-05-29T04:25:56.801Z,21.00
2018-05-29T04:28:24.483Z,21.00
2018-05-29T04:30:53.026Z,21.10
2018-05-29T04:33:20.734Z,21.10
2018-05-29T04:35:48.486Z,21.10
2018-05-29T04:38:16.251Z,21.20
2018-05-29T04:40:43.914Z,21.20
2018-05-29T04:43:11.599Z,21.30
2018-05-29T04:45:39.241Z,21.30
2018-05-29T04:48:06.926Z,21.30
2018-05-29T04:50:34.602Z,21.40
2018-05-29T04:53:02.352Z,21.40
2018-05-29T04:55:30.119Z,21.40
2018-05-29T04:57:57.990Z,21.40
2018-05-29T05:00:25.647Z,21.50
2018-05-29T05:02:53.406Z,21.50
2018-05-29T05:05:21.142Z,21.50
2018-05-29T05:07:48.873Z,21.50
2018-05-29T05:10:16.570Z,21.50
2018-05-29T05:12:44.811Z,21.60
2018-05-29T05:15:13.038Z,21.70
2018-05-29T05:17:40.764Z,21.70
2018-05-29T05:20:09.292Z,21.60
2018-05-29T05:22:37.202Z,21.70
2018-05-29T05:25:05.242Z,21.70
2018-05-29T05:27:32.948Z,21.70
2018-05-29T05:30:00.995Z,21.80
2018-05-29T05:32:28.714Z,21.80
2018-05-29T05:34:56.440Z,21.80
2018-05-29T05:37:24.239Z,21.80
2018-05-29T05:39:51.952Z,21.80
2018-05-29T05:42:20.277Z,21.90
2018-05-29T05:44:47.955Z,21.90
2018-05-29T05:47:15.622Z,22.00
2018-05-29T05:49:43.294Z,22.00
2018-05-29T05:52:11.101Z,22.00
2018-05-29T05:54:38.843Z,22.10
2018-05-29T05:57:07.413Z,22.20
2018-05-29T05:59:35.158Z,22.30
2018-05-29T06:02:02.942Z,22.30
2018-05-29T06:04:30.742Z,22.40
2018-05-29T06:06:58.467Z,22.50
2018-05-29T06:09:26.233Z,22.60
2018-05-29T06:11:53.989Z,22.70
2018-05-29T06:14:21.733Z,22.70
2018-05-29T06:16:49.404Z,22.70
2018-05-29T06:19:17.096Z,22.80
2018-05-29T06:21:44.734Z,22.80
2018-05-29T06:24:12.403Z,22.80
2018-05-29T06:26:40.075Z,22.90
2018-05-29T06:29:07.866Z,22.90
2018-05-29T06:31:35.539Z,23.00
2018-05-29T06:34:03.214Z,23.20
2018-05-29T06:36:30.832Z,23.40
2018-05-29T06:38:58.578Z,23.50
2018-05-29T06:41:26.344Z,23.60
2018-05-29T06:43:54.010Z,23.70
2018-05-29T06:46:21.675Z,23.80
2018-05-29T06:48:50.178Z,24.10
2018-05-29T06:51:17.908Z,24.10
2018-05-29T06:53:45.559Z,24.20
2018-05-29T06:56:13.230Z,24.40
2018-05-29T06:58:40.906Z,24.60
2018-05-29T07:01:09.334Z,25.10
2018-05-29T07:03:37.034Z,25.10
2018-05-29T07:06:04.694Z,25.40
2018-05-29T07:08:32.382Z,25.80
2018-05-29T07:11:00.154Z,26.10
2018-05-29T07:13:27.914Z,26.60
2018-05-29T07:15:55.676Z,27.10
2018-05-29T07:18:23.334Z,27.70
2018-05-29T07:20:51.826Z,29.10
2018-05-29T07:23:19.560Z,29.00
2018-05-29T07:25:47.266Z,29.60
2018-05-29T07:28:14.918Z,30.00
2018-05-29T07:30:42.563Z,30.10
2018-05-29T07:33:11.055Z,29.80
2018-05-29T07:35:38.798Z,29.80
2018-05-29T07:38:06.467Z,29.80
2018-05-29T07:40:34.171Z,30.00
2018-05-29T07:43:01.882Z,30.40
2018-05-29T07:45:29.667Z,30.60
2018-05-29T07:47:57.425Z,30.60
2018-05-29T07:50:25.915Z,30.40
2018-05-29T07:52:53.627Z,30.40
2018-05-29T07:55:21.267Z,30.30
2018-05-29T07:57:50.437Z,30.30
2018-05-29T08:00:18.919Z,30.20
2018-05-29T08:02:46.592Z,30.10
2018-05-29T08:05:14.258Z,30.10
2018-05-29T08:07:42.004Z,30.00
2018-05-29T08:10:09.727Z,30.30
2018-05-29T08:12:37.405Z,30.40
2018-05-29T08:15:05.150Z,30.60
2018-05-29T08:17:32.819Z,31.00
2018-05-29T08:20:00.511Z,31.60
2018-05-29T08:22:28.954Z,32.00
2018-05-29T08:24:56.757Z,32.50
2018-05-29T08:27:24.471Z,32.90
2018-05-29T08:29:52.436Z,33.50
2018-05-29T08:32:20.159Z,33.80
2018-05-29T08:34:48.616Z,34.10
2018-05-29T08:37:16.310Z,34.10
2018-05-29T08:39:43.984Z,33.90
2018-05-29T08:42:11.641Z,33.90
2018-05-29T08:44:39.307Z,33.90
2018-05-29T08:47:07.017Z,33.80
2018-05-29T08:49:34.718Z,33.90
2018-05-29T08:52:03.445Z,33.80
2018-05-29T08:54:32.005Z,33.70
2018-05-29T08:56:59.657Z,33.70
2018-05-29T08:59:27.300Z,33.90
2018-05-29T09:01:54.940Z,34.00
2018-05-29T09:04:22.669Z,33.90
2018-05-29T09:06:50.327Z,33.90
2018-05-29T09:09:18.027Z,33.90
2018-05-29T09:11:45.677Z,34.10
2018-05-29T09:14:13.372Z,34.20
2018-05-29T09:16:41.851Z,34.50
2018-05-29T09:19:10.264Z,34.50
2018-05-29T09:21:37.947Z,34.50
2018-05-29T09:24:05.606Z,34.60
2018-05-29T09:26:33.246Z,34.80
2018-05-29T09:29:00.905Z,34.80
2018-05-29T09:31:28.596Z,34.70
2018-05-29T09:33:56.229Z,34.80
2018-05-29T09:36:23.870Z,34.70
2018-05-29T09:38:51.528Z,34.50
2018-05-29T09:41:20.037Z,34.40
2018-05-29T09:43:47.758Z,34.40
2018-05-29T09:46:15.463Z,34.50
2018-05-29T09:48:43.182Z,34.60
2018-05-29T09:51:10.869Z,34.50
2018-05-29T09:53:38.530Z,34.60
2018-05-29T09:56:06.184Z,34.70
2018-05-29T09:58:33.860Z,34.70
2018-05-29T10:01:01.531Z,34.90
2018-05-29T10:03:29.198Z,34.90
2018-05-29T10:05:57.609Z,35.10
2018-05-29T10:08:25.222Z,35.10
2018-05-29T10:10:53.476Z,35.20
2018-05-29T10:13:21.907Z,35.30
2018-05-29T10:15:50.308Z,35.30
2018-05-29T10:18:17.947Z,35.20
2018-05-29T10:20:45.665Z,35.20
2018-05-29T10:23:13.371Z,35.10
2018-05-29T10:25:41.044Z,35.00
2018-05-29T10:28:08.708Z,35.00
2018-05-29T10:30:36.398Z,35.10
2018-05-29T10:33:04.052Z,35.20
2018-05-29T10:35:31.702Z,35.10
2018-05-29T10:37:59.395Z,35.10
2018-05-29T10:40:27.831Z,35.10
2018-05-29T10:42:55.489Z,35.10
2018-05-29T10:45:23.191Z,35.10
2018-05-29T10:47:50.891Z,35.20
2018-05-29T10:50:18.572Z,35.10
2018-05-29T10:52:46.256Z,35.10
2018-05-29T10:55:13.923Z,35.10
2018-05-29T10:57:41.584Z,35.10
2018-05-29T11:00:09.250Z,35.00
2018-05-29T11:02:36.930Z,35.00
2018-05-29T11:05:04.633Z,35.00
2018-05-29T11:07:32.332Z,34.90
2018-05-29T11:10:00.035Z,34.80
2018-05-29T11:12:28.498Z,34.80
2018-05-29T11:14:56.147Z,34.90
2018-05-29T11:17:23.800Z,35.00
2018-05-29T11:19:51.478Z,35.00
2018-05-29T11:22:19.157Z,35.20
2018-05-29T11:24:46.848Z,35.30
2018-05-29T11:27:14.512Z,35.10
2018-05-29T11:29:42.211Z,34.90
2018-05-29T11:32:09.888Z,34.80
2018-05-29T11:34:37.557Z,34.60
2018-05-29T11:37:06.063Z,33.90
2018-05-29T11:39:33.740Z,33.90
2018-05-29T11:42:01.404Z,33.90
2018-05-29T11:44:29.142Z,33.90
2018-05-29T11:46:56.876Z,33.90
2018-05-29T11:49:24.556Z,33.80
2018-05-29T11:51:52.985Z,33.60
2018-05-29T11:54:20.670Z,33.60
2018-05-29T11:56:49.120Z,33.50
2018-05-29T11:59:16.861Z,33.60
2018-05-29T12:01:44.634Z,33.60
2018-05-29T12:04:12.347Z,33.60
2018-05-29T12:06:40.079Z,33.90
2018-05-29T12:09:07.734Z,34.20
2018-05-29T12:11:35.354Z,34.30
2018-05-29T12:14:03.101Z,34.40
2018-05-29T12:16:30.849Z,34.30
2018-05-29T12:18:58.547Z,34.20
2018-05-29T12:21:26.183Z,33.60
2018-05-29T12:23:53.840Z,33.50
2018-05-29T12:26:21.503Z,33.10
2018-05-29T12:28:49.166Z,32.70
2018-05-29T12:31:16.851Z,32.40
2018-05-29T12:33:45.303Z,32.10
2018-05-29T12:36:13.028Z,32.10
2018-05-29T12:38:40.692Z,32.10
2018-05-29T12:41:08.446Z,31.90
2018-05-29T12:43:36.159Z,31.80
2018-05-29T12:46:03.871Z,31.80
2018-05-29T12:48:31.601Z,31.60
2018-05-29T12:50:59.275Z,31.40
2018-05-29T12:53:26.987Z,31.40
2018-05-29T12:55:54.763Z,31.30
2018-05-29T12:58:22.546Z,31.30
2018-05-29T13:00:50.222Z,31.40
2018-05-29T13:03:19.352Z,31.50
2018-05-29T13:05:46.996Z,31.50
2018-05-29T13:08:15.514Z,31.40
2018-05-29T13:10:43.218Z,31.30
2018-05-29T13:13:10.873Z,31.40
2018-05-29T13:15:38.603Z,31.50
2018-05-29T13:18:06.283Z,31.60
2018-05-29T13:20:33.947Z,31.70
2018-05-29T13:23:01.658Z,31.70
2018-05-29T13:25:29.350Z,31.60
2018-05-29T13:27:57.060Z,31.50
2018-05-29T13:30:24.736Z,31.40
2018-05-29T13:32:53.209Z,31.20
2018-05-29T13:35:21.040Z,31.20
2018-05-29T13:37:48.748Z,31.10
2018-05-29T13:40:17.206Z,31.20
2018-05-29T13:42:44.982Z,31.10
2018-05-29T13:45:12.658Z,31.10
2018-05-29T13:47:40.343Z,31.10
2018-05-29T13:50:07.982Z,31.00
2018-05-29T13:52:36.462Z,30.90
2018-05-29T13:55:05.022Z,30.90
2018-05-29T13:57:32.719Z,30.90
2018-05-29T14:00:00.455Z,30.80
2018-05-29T14:02:28.114Z,30.80
2018-05-29T14:04:55.779Z,30.70
2018-05-29T14:07:23.440Z,30.70
2018-05-29T14:09:51.098Z,30.80
2018-05-29T14:12:18.813Z,30.90
2018-05-29T14:14:46.554Z,31.00
2018-05-29T14:17:14.289Z,31.10
2018-05-29T14:19:41.989Z,31.10
2018-05-29T14:22:09.703Z,30.90
2018-05-29T14:24:37.361Z,30.70
2018-05-29T14:27:05.070Z,30.60
2018-05-29T14:29:32.739Z,30.60
2018-05-29T14:32:00.454Z,30.50
2018-05-29T14:34:28.122Z,30.50
2018-05-29T14:36:55.767Z,30.50
2018-05-29T14:39:23.436Z,30.60
2018-05-29T14:41:51.125Z,30.60
2018-05-29T14:44:18.825Z,30.70
2018-05-29T14:46:46.467Z,30.70
2018-05-29T14:49:14.235Z,30.70
2018-05-29T14:51:41.973Z,30.60
2018-05-29T14:54:10.426Z,30.20
2018-05-29T14:56:38.118Z,30.20
2018-05-29T14:59:05.811Z,30.00
2018-05-29T15:01:33.474Z,29.80
2018-05-29T15:04:01.788Z,29.70
2018-05-29T15:06:29.477Z,29.60
2018-05-29T15:08:57.161Z,29.40
2018-05-29T15:11:24.945Z,29.40
2018-05-29T15:13:52.679Z,29.30
2018-05-29T15:16:21.089Z,29.20
2018-05-29T15:18:48.806Z,29.20
2018-05-29T15:21:16.458Z,29.20
2018-05-29T15:23:44.184Z,29.10
2018-05-29T15:26:11.895Z,29.10
2018-05-29T15:28:40.382Z,29.00
2018-05-29T15:31:08.033Z,28.90
2018-05-29T15:33:35.723Z,28.90
2018-05-29T15:36:04.274Z,28.80
2018-05-29T15:38:32.028Z,28.80
2018-05-29T15:40:59.771Z,28.70
2018-05-29T15:43:27.489Z,28.70
2018-05-29T15:45:55.978Z,28.70
2018-05-29T15:48:23.741Z,28.70
2018-05-29T15:50:51.383Z,28.80
2018-05-29T15:53:19.074Z,28.80
2018-05-29T15:55:46.745Z,28.80
2018-05-29T15:58:14.550Z,28.80
2018-05-29T16:00:42.335Z,28.80
2018-05-29T16:03:10.096Z,28.80
2018-05-29T16:05:37.828Z,28.70
2018-05-29T16:08:05.559Z,28.60
2018-05-29T16:10:33.294Z,28.60
2018-05-29T16:13:01.007Z,28.60
2018-05-29T16:15:28.751Z,28.50
2018-05-29T16:17:56.406Z,28.40
2018-05-29T16:20:24.846Z,28.40
2018-05-29T16:22:52.534Z,28.40
2018-05-29T16:25:20.954Z,28.20
2018-05-29T16:27:48.753Z,28.20
2018-05-29T16:30:16.476Z,28.10
2018-05-29T16:32:45.010Z,28.00
2018-05-29T16:35:12.724Z,27.90
2018-05-29T16:37:40.480Z,27.80
2018-05-29T16:40:08.264Z,27.70
2018-05-29T16:42:35.973Z,27.60
2018-05-29T16:45:03.720Z,27.50
2018-05-29T16:47:31.461Z,27.40
2018-05-29T16:49:59.272Z,27.40
2018-05-29T16:52:26.995Z,27.40
2018-05-29T16:54:54.726Z,27.30
2018-05-29T16:57:22.430Z,27.30
2018-05-29T16:59:50.184Z,27.30
2018-05-29T17:02:17.895Z,27.20
2018-05-29T17:04:46.424Z,27.20
2018-05-29T17:07:14.249Z,27.10
2018-05-29T17:09:42.691Z,27.10
2018-05-29T17:12:10.439Z,27.10
2018-05-29T17:14:38.183Z,27.10
2018-05-29T17:17:05.912Z,27.10
2018-05-29T17:19:33.595Z,27.10
2018-05-29T17:22:01.370Z,27.00
2018-05-29T17:24:29.099Z,26.80
2018-05-29T17:26:57.284Z,26.50
2018-05-29T17:29:25.044Z,26.10
2018-05-29T17:31:52.707Z,25.70
2018-05-29T17:34:20.864Z,25.20
2018-05-29T17:36:48.642Z,24.70
2018-05-29T17:39:16.361Z,24.30
2018-05-29T17:41:44.278Z,23.90
2018-05-29T17:44:12.862Z,23.40
2018-05-29T17:46:40.679Z,23.30
2018-05-29T17:49:08.390Z,23.30
2018-05-29T17:51:36.071Z,23.20
2018-05-29T17:54:03.847Z,23.30
2018-05-29T17:56:31.586Z,23.40
2018-05-29T17:59:00.150Z,23.50
2018-05-29T18:01:27.885Z,23.40
2018-05-29T18:03:55.594Z,23.50
2018-05-29T18:06:24.188Z,23.60
2018-05-29T18:08:51.906Z,23.50
2018-05-29T18:11:19.618Z,23.60
2018-05-29T18:13:47.322Z,23.60
2018-05-29T18:16:15.058Z,23.60
2018-05-29T18:18:42.780Z,23.50
2018-05-29T18:21:11.516Z,23.40
2018-05-29T18:23:39.253Z,23.10
2018-05-29T18:26:07.029Z,22.70
2018-05-29T18:28:34.809Z,22.30
2018-05-29T18:31:02.562Z,21.80
2018-05-29T18:33:30.474Z,21.40
2018-05-29T18:35:58.171Z,21.10
2018-05-29T18:38:26.675Z,20.60
2018-05-29T18:40:54.394Z,20.50
2018-05-29T18:43:22.110Z,20.40
2018-05-29T18:45:49.822Z,20.20
2018-05-29T18:48:17.577Z,20.10
2018-05-29T18:50:45.307Z,19.90
2018-05-29T18:53:13.057Z,19.90
2018-05-29T18:55:40.827Z,19.80
2018-05-29T18:58:08.559Z,19.70
2018-05-29T19:00:36.273Z,19.70
2018-05-29T19:03:04.746Z,19.70
2018-05-29T19:05:32.555Z,19.70
2018-05-29T19:08:00.876Z,19.80
2018-05-29T19:10:28.624Z,19.80
2018-05-29T19:12:56.420Z,19.90
2018-05-29T19:15:24.180Z,19.90
2018-05-29T19:17:52.015Z,20.00
2018-05-29T19:20:19.804Z,20.00
2018-05-29T19:22:47.617Z,20.10
2018-05-29T19:25:15.407Z,20.10
2018-05-29T19:27:43.248Z,20.10
2018-05-29T19:30:11.036Z,20.20
2018-05-29T19:32:38.782Z,20.20
2018-05-29T19:35:07.297Z,20.20
2018-05-29T19:37:35.054Z,20.20
2018-05-29T19:40:03.676Z,20.20
2018-05-29T19:42:31.426Z,20.20
2018-05-29T19:44:59.265Z,20.20
2018-05-29T19:47:27.821Z,20.20
2018-05-29T19:49:55.631Z,20.20
2018-05-29T19:52:23.476Z,20.20
2018-05-29T19:54:52.332Z,20.30
2018-05-29T19:57:20.193Z,20.30
2018-05-29T19:59:48.091Z,20.30
2018-05-29T20:02:15.954Z,20.30
2018-05-29T20:04:43.673Z,20.30
2018-05-29T20:07:12.393Z,20.30
2018-05-29T20:10:07.661Z,20.40
2018-05-29T20:12:35.399Z,20.40
2018-05-29T20:15:04.183Z,20.40
2018-05-29T20:17:31.914Z,20.50
2018-05-29T20:19:59.753Z,20.50
2018-05-29T20:22:27.443Z,20.50
2018-05-29T20:24:55.335Z,20.50
2018-05-29T20:27:23.121Z,20.60
2018-05-29T20:29:51.129Z,20.60
2018-05-29T20:32:18.859Z,20.60
2018-05-29T20:34:46.656Z,20.60
2018-05-29T20:37:14.634Z,20.60
2018-05-29T20:39:42.497Z,20.60
2018-05-29T20:42:10.368Z,20.60
2018-05-29T20:44:39.005Z,20.60
2018-05-29T20:47:06.972Z,20.60
2018-05-29T20:49:35.696Z,20.60
2018-05-29T20:52:04.621Z,20.60
2018-05-29T20:54:34.709Z,20.50
2018-05-29T20:57:02.802Z,20.50
2018-05-29T20:59:30.592Z,20.50
2018-05-29T21:02:00.536Z,20.50
2018-05-29T21:04:28.403Z,20.40
2018-05-29T21:06:57.233Z,20.50
2018-05-29T21:09:25.025Z,20.50
2018-05-29T21:11:52.928Z,20.50
2018-05-29T21:14:20.816Z,20.50
2018-05-29T21:16:48.672Z,20.50
2018-05-29T21:19:16.516Z,20.60
2018-05-29T21:21:44.513Z,20.60
2018-05-29T21:24:12.335Z,20.60
2018-05-29T21:26:40.255Z,20.60
2018-05-29T21:29:08.030Z,20.60
2018-05-29T21:31:36.136Z,20.60
2018-05-29T21:34:03.959Z,20.60
2018-05-29T21:36:33.060Z,20.60
2018-05-29T21:39:01.933Z,20.60
2018-05-29T21:41:29.964Z,20.50
2018-05-29T21:43:58.008Z,20.50
2018-05-29T21:46:26.003Z,20.60
2018-05-29T21:48:53.934Z,20.50
2018-05-29T21:51:22.044Z,20.50
2018-05-29T21:53:49.949Z,20.50
2018-05-29T21:56:17.794Z,20.50
2018-05-29T21:58:45.559Z,20.50
2018-05-29T22:03:48.874Z,20.40
2018-05-29T22:06:20.558Z,20.40
2018-05-29T22:08:48.498Z,20.30
2018-05-29T22:11:16.381Z,20.30
2018-05-29T22:13:44.232Z,20.40
2018-05-29T22:16:12.072Z,20.40
2018-05-29T22:18:40.056Z,20.40
2018-05-29T22:21:07.866Z,20.40
2018-05-29T22:23:36.669Z,20.40
2018-05-29T22:26:05.243Z,20.40
2018-05-29T22:28:33.036Z,20.40
2018-05-29T22:31:00.855Z,20.40
2018-05-29T22:33:28.656Z,20.50
2018-05-29T22:35:56.514Z,20.50
2018-05-29T22:38:24.415Z,20.50
2018-05-29T22:40:52.944Z,20.50
2018-05-29T22:43:20.690Z,20.50
2018-05-29T22:45:48.492Z,20.50
2018-05-29T22:48:16.291Z,20.50
2018-05-29T22:50:44.259Z,20.50
2018-05-29T22:53:12.160Z,20.60
2018-05-29T22:55:39.976Z,20.60
2018-05-29T22:58:07.807Z,20.60
2018-05-29T23:00:35.661Z,20.50
2018-05-29T23:03:03.530Z,20.50
2018-05-29T23:05:31.383Z,20.60
2018-05-29T23:07:59.131Z,20.60
2018-05-29T23:10:26.922Z,20.60
2018-05-29T23:12:55.026Z,20.60
2018-05-29T23:15:22.877Z,20.60
2018-05-29T23:17:50.775Z,20.60
2018-05-29T23:20:18.575Z,20.70
2018-05-29T23:22:46.362Z,20.70
2018-05-29T23:25:15.010Z,20.70
2018-05-29T23:27:42.914Z,20.70
2018-05-29T23:30:10.744Z,20.70
2018-05-29T23:32:38.818Z,20.70
2018-05-29T23:35:06.741Z,20.70
2018-05-29T23:37:34.588Z,20.70
2018-05-29T23:40:02.506Z,20.70
2018-05-29T23:42:30.348Z,20.70
2018-05-29T23:44:58.215Z,20.70
2018-05-29T23:47:26.071Z,20.70
2018-05-29T23:49:53.883Z,20.80
2018-05-29T23:52:21.771Z,20.80
2018-05-29T23:54:49.633Z,20.80
2018-05-29T23:57:17.642Z,20.80
2018-05-29T23:59:45.426Z,20.70
